sensor_id;sensor_type;location;lat;lon;timestamp;P1;durP1;ratioP1;P2;durP2;ratioP2
15603;SDS011;7902;49.042;9.092;2023-05-10T00:00:08;8.60;;;0.60;;
15603;SDS011;7902;49.042;9.092;2023-05-10T00:02:34;8.63;;;0.60;;
15603;SDS011;7902;49.042;9.092;2023-05-10T00:05:00;9.10;;;0.73;;
15603;SDS011;7902;49.042;9.092;2023-05-10T00:07:27;13.03;;;0.60;;
15603;SDS011;7902;49.042;9.092;2023-05-10T00:09:53;10.60;;;0.73;;
15603;SDS011;7902;49.042;9.092;2023-05-10T00:12:18;10.77;;;0.70;;
15603;SDS011;7902;49.042;9.092;2023-05-10T00:14:44;8.47;;;0.50;;
15603;SDS011;7902;49.042;9.092;2023-05-10T00:17:10;19.73;;;0.63;;
15603;SDS011;7902;49.042;9.092;2023-05-10T00:19:36;12.40;;;1.27;;
15603;SDS011;7902;49.042;9.092;2023-05-10T00:22:02;8.47;;;0.60;;
15603;SDS011;7902;49.042;9.092;2023-05-10T00:24:28;11.63;;;0.73;;
15603;SDS011;7902;49.042;9.092;2023-05-10T00:26:54;8.70;;;0.60;;
15603;SDS011;7902;49.042;9.092;2023-05-10T00:29:20;10.63;;;0.80;;
15603;SDS011;7902;49.042;9.092;2023-05-10T00:31:46;17.17;;;0.90;;
15603;SDS011;7902;49.042;9.092;2023-05-10T00:34:12;9.80;;;0.80;;
15603;SDS011;7902;49.042;9.092;2023-05-10T00:36:38;10.50;;;0.70;;
15603;SDS011;7902;49.042;9.092;2023-05-10T00:39:03;13.07;;;0.70;;
15603;SDS011;7902;49.042;9.092;2023-05-10T00:41:29;10.63;;;0.83;;
15603;SDS011;7902;49.042;9.092;2023-05-10T00:43:58;9.83;;;1.00;;
15603;SDS011;7902;49.042;9.092;2023-05-10T00:46:24;8.50;;;0.60;;
15603;SDS011;7902;49.042;9.092;2023-05-10T00:48:50;8.50;;;0.60;;
15603;SDS011;7902;49.042;9.092;2023-05-10T00:51:16;8.67;;;0.67;;
15603;SDS011;7902;49.042;9.092;2023-05-10T00:53:43;8.50;;;0.60;;
15603;SDS011;7902;49.042;9.092;2023-05-10T00:56:11;8.33;;;0.60;;
15603;SDS011;7902;49.042;9.092;2023-05-10T00:58:38;8.60;;;0.60;;
15603;SDS011;7902;49.042;9.092;2023-05-10T01:01:04;9.33;;;0.70;;
15603;SDS011;7902;49.042;9.092;2023-05-10T01:03:32;8.33;;;0.60;;
15603;SDS011;7902;49.042;9.092;2023-05-10T01:05:58;8.60;;;0.70;;
15603;SDS011;7902;49.042;9.092;2023-05-10T01:08:24;10.50;;;0.70;;
15603;SDS011;7902;49.042;9.092;2023-05-10T01:10:51;21.03;;;1.00;;
15603;SDS011;7902;49.042;9.092;2023-05-10T01:13:26;8.60;;;0.70;;
15603;SDS011;7902;49.042;9.092;2023-05-10T01:16:01;12.40;;;0.87;;
15603;SDS011;7902;49.042;9.092;2023-05-10T01:18:27;8.50;;;0.60;;
15603;SDS011;7902;49.042;9.092;2023-05-10T01:21:03;9.70;;;0.90;;
15603;SDS011;7902;49.042;9.092;2023-05-10T01:23:36;9.73;;;0.90;;
15603;SDS011;7902;49.042;9.092;2023-05-10T01:26:22;9.07;;;0.93;;
15603;SDS011;7902;49.042;9.092;2023-05-10T01:29:17;8.70;;;0.80;;
15603;SDS011;7902;49.042;9.092;2023-05-10T01:34:34;16.73;;;0.80;;
15603;SDS011;7902;49.042;9.092;2023-05-10T01:37:09;9.50;;;0.83;;
15603;SDS011;7902;49.042;9.092;2023-05-10T01:42:07;12.27;;;0.80;;
15603;SDS011;7902;49.042;9.092;2023-05-10T01:44:45;8.57;;;0.60;;
15603;SDS011;7902;49.042;9.092;2023-05-10T01:50:02;9.23;;;0.80;;
15603;SDS011;7902;49.042;9.092;2023-05-10T01:52:32;10.97;;;0.73;;
15603;SDS011;7902;49.042;9.092;2023-05-10T01:55:01;10.23;;;0.73;;
15603;SDS011;7902;49.042;9.092;2023-05-10T01:57:33;9.97;;;0.90;;
15603;SDS011;7902;49.042;9.092;2023-05-10T02:00:03;9.03;;;0.90;;
15603;SDS011;7902;49.042;9.092;2023-05-10T02:02:33;10.63;;;0.90;;
15603;SDS011;7902;49.042;9.092;2023-05-10T02:05:02;9.47;;;0.80;;
15603;SDS011;7902;49.042;9.092;2023-05-10T02:07:30;8.93;;;0.80;;
15603;SDS011;7902;49.042;9.092;2023-05-10T02:09:59;10.57;;;0.80;;
15603;SDS011;7902;49.042;9.092;2023-05-10T02:12:27;8.70;;;0.80;;
15603;SDS011;7902;49.042;9.092;2023-05-10T02:14:54;8.83;;;0.80;;
15603;SDS011;7902;49.042;9.092;2023-05-10T02:17:20;9.33;;;0.77;;
15603;SDS011;7902;49.042;9.092;2023-05-10T02:19:47;8.97;;;0.80;;
15603;SDS011;7902;49.042;9.092;2023-05-10T02:22:13;9.80;;;0.80;;
15603;SDS011;7902;49.042;9.092;2023-05-10T02:24:41;8.47;;;0.70;;
15603;SDS011;7902;49.042;9.092;2023-05-10T02:27:09;10.83;;;0.80;;
15603;SDS011;7902;49.042;9.092;2023-05-10T02:29:36;8.50;;;0.70;;
15603;SDS011;7902;49.042;9.092;2023-05-10T02:32:03;11.40;;;0.90;;
15603;SDS011;7902;49.042;9.092;2023-05-10T02:34:29;8.60;;;0.70;;
15603;SDS011;7902;49.042;9.092;2023-05-10T02:36:55;9.07;;;1.00;;
15603;SDS011;7902;49.042;9.092;2023-05-10T02:39:22;8.87;;;0.80;;
15603;SDS011;7902;49.042;9.092;2023-05-10T02:41:50;8.70;;;1.00;;
15603;SDS011;7902;49.042;9.092;2023-05-10T02:44:19;8.90;;;0.90;;
15603;SDS011;7902;49.042;9.092;2023-05-10T02:46:45;12.33;;;1.10;;
15603;SDS011;7902;49.042;9.092;2023-05-10T02:49:12;8.40;;;0.77;;
15603;SDS011;7902;49.042;9.092;2023-05-10T02:51:40;9.10;;;0.80;;
15603;SDS011;7902;49.042;9.092;2023-05-10T02:54:10;26.03;;;1.27;;
15603;SDS011;7902;49.042;9.092;2023-05-10T02:56:42;9.57;;;1.27;;
15603;SDS011;7902;49.042;9.092;2023-05-10T02:59:13;8.90;;;0.90;;
15603;SDS011;7902;49.042;9.092;2023-05-10T03:01:39;11.27;;;1.00;;
15603;SDS011;7902;49.042;9.092;2023-05-10T03:04:05;9.27;;;1.40;;
15603;SDS011;7902;49.042;9.092;2023-05-10T03:06:31;9.77;;;1.27;;
15603;SDS011;7902;49.042;9.092;2023-05-10T03:08:57;9.90;;;1.20;;
15603;SDS011;7902;49.042;9.092;2023-05-10T03:16:46;10.17;;;1.57;;
15603;SDS011;7902;49.042;9.092;2023-05-10T03:19:40;9.30;;;1.30;;
15603;SDS011;7902;49.042;9.092;2023-05-10T03:22:10;9.60;;;1.27;;
15603;SDS011;7902;49.042;9.092;2023-05-10T03:24:39;13.33;;;1.73;;
15603;SDS011;7902;49.042;9.092;2023-05-10T03:27:06;20.30;;;1.97;;
15603;SDS011;7902;49.042;9.092;2023-05-10T03:29:33;9.50;;;1.20;;
15603;SDS011;7902;49.042;9.092;2023-05-10T03:32:00;9.60;;;1.40;;
15603;SDS011;7902;49.042;9.092;2023-05-10T03:34:26;11.20;;;1.50;;
15603;SDS011;7902;49.042;9.092;2023-05-10T03:36:52;16.17;;;1.80;;
15603;SDS011;7902;49.042;9.092;2023-05-10T03:39:18;9.90;;;1.80;;
15603;SDS011;7902;49.042;9.092;2023-05-10T03:41:44;8.90;;;1.57;;
15603;SDS011;7902;49.042;9.092;2023-05-10T03:44:09;12.40;;;2.20;;
15603;SDS011;7902;49.042;9.092;2023-05-10T03:46:36;9.03;;;1.53;;
15603;SDS011;7902;49.042;9.092;2023-05-10T03:49:02;10.60;;;1.87;;
15603;SDS011;7902;49.042;9.092;2023-05-10T03:51:28;10.60;;;2.13;;
15603;SDS011;7902;49.042;9.092;2023-05-10T03:53:54;10.00;;;1.73;;
15603;SDS011;7902;49.042;9.092;2023-05-10T03:56:21;9.20;;;1.60;;
15603;SDS011;7902;49.042;9.092;2023-05-10T03:58:46;9.60;;;1.50;;
15603;SDS011;7902;49.042;9.092;2023-05-10T04:01:12;12.53;;;1.50;;
15603;SDS011;7902;49.042;9.092;2023-05-10T04:03:38;9.40;;;1.60;;
15603;SDS011;7902;49.042;9.092;2023-05-10T04:06:04;9.10;;;1.73;;
15603;SDS011;7902;49.042;9.092;2023-05-10T04:08:31;11.43;;;1.50;;
15603;SDS011;7902;49.042;9.092;2023-05-10T04:11:09;11.20;;;1.63;;
15603;SDS011;7902;49.042;9.092;2023-05-10T04:13:36;9.70;;;1.83;;
15603;SDS011;7902;49.042;9.092;2023-05-10T04:16:02;9.87;;;1.67;;
15603;SDS011;7902;49.042;9.092;2023-05-10T04:18:28;13.60;;;1.87;;
15603;SDS011;7902;49.042;9.092;2023-05-10T04:20:54;9.97;;;1.80;;
15603;SDS011;7902;49.042;9.092;2023-05-10T04:23:20;9.20;;;1.43;;
15603;SDS011;7902;49.042;9.092;2023-05-10T04:25:46;10.50;;;1.63;;
15603;SDS011;7902;49.042;9.092;2023-05-10T04:28:12;9.07;;;1.40;;
15603;SDS011;7902;49.042;9.092;2023-05-10T04:30:38;10.70;;;1.67;;
15603;SDS011;7902;49.042;9.092;2023-05-10T04:33:04;10.40;;;1.57;;
15603;SDS011;7902;49.042;9.092;2023-05-10T04:35:30;9.63;;;1.40;;
15603;SDS011;7902;49.042;9.092;2023-05-10T04:37:55;12.10;;;1.53;;
15603;SDS011;7902;49.042;9.092;2023-05-10T04:40:21;12.53;;;2.03;;
15603;SDS011;7902;49.042;9.092;2023-05-10T04:42:47;10.90;;;1.90;;
15603;SDS011;7902;49.042;9.092;2023-05-10T04:45:13;12.70;;;1.30;;
15603;SDS011;7902;49.042;9.092;2023-05-10T04:47:42;10.37;;;1.43;;
15603;SDS011;7902;49.042;9.092;2023-05-10T04:50:08;13.17;;;1.73;;
15603;SDS011;7902;49.042;9.092;2023-05-10T04:52:34;12.00;;;1.40;;
15603;SDS011;7902;49.042;9.092;2023-05-10T04:55:00;15.20;;;1.43;;
15603;SDS011;7902;49.042;9.092;2023-05-10T04:57:26;10.17;;;1.50;;
15603;SDS011;7902;49.042;9.092;2023-05-10T04:59:52;11.67;;;1.87;;
15603;SDS011;7902;49.042;9.092;2023-05-10T05:02:18;10.33;;;1.47;;
15603;SDS011;7902;49.042;9.092;2023-05-10T05:04:44;14.40;;;1.70;;
15603;SDS011;7902;49.042;9.092;2023-05-10T05:07:10;11.47;;;1.47;;
15603;SDS011;7902;49.042;9.092;2023-05-10T05:09:36;12.00;;;1.47;;
15603;SDS011;7902;49.042;9.092;2023-05-10T05:12:02;9.77;;;1.37;;
15603;SDS011;7902;49.042;9.092;2023-05-10T05:14:28;11.03;;;1.37;;
15603;SDS011;7902;49.042;9.092;2023-05-10T05:16:53;9.40;;;1.43;;
15603;SDS011;7902;49.042;9.092;2023-05-10T05:19:19;12.00;;;1.77;;
15603;SDS011;7902;49.042;9.092;2023-05-10T05:21:45;11.67;;;1.13;;
15603;SDS011;7902;49.042;9.092;2023-05-10T05:24:11;13.27;;;1.40;;
15603;SDS011;7902;49.042;9.092;2023-05-10T05:26:38;10.80;;;1.73;;
15603;SDS011;7902;49.042;9.092;2023-05-10T05:29:04;11.83;;;1.93;;
15603;SDS011;7902;49.042;9.092;2023-05-10T05:31:30;9.87;;;1.27;;
15603;SDS011;7902;49.042;9.092;2023-05-10T05:33:56;9.10;;;1.30;;
15603;SDS011;7902;49.042;9.092;2023-05-10T05:36:22;20.73;;;1.70;;
15603;SDS011;7902;49.042;9.092;2023-05-10T05:38:48;11.50;;;1.70;;
15603;SDS011;7902;49.042;9.092;2023-05-10T05:41:13;9.20;;;1.30;;
15603;SDS011;7902;49.042;9.092;2023-05-10T05:43:39;12.43;;;1.40;;
15603;SDS011;7902;49.042;9.092;2023-05-10T05:46:05;11.43;;;1.50;;
15603;SDS011;7902;49.042;9.092;2023-05-10T05:48:31;23.57;;;1.80;;
15603;SDS011;7902;49.042;9.092;2023-05-10T05:50:57;10.90;;;1.90;;
15603;SDS011;7902;49.042;9.092;2023-05-10T05:53:23;10.50;;;1.70;;
15603;SDS011;7902;49.042;9.092;2023-05-10T05:55:56;9.97;;;1.50;;
15603;SDS011;7902;49.042;9.092;2023-05-10T05:58:26;10.87;;;1.60;;
15603;SDS011;7902;49.042;9.092;2023-05-10T06:00:53;10.80;;;1.57;;
15603;SDS011;7902;49.042;9.092;2023-05-10T06:03:19;11.53;;;1.83;;
15603;SDS011;7902;49.042;9.092;2023-05-10T06:05:46;11.90;;;1.70;;
15603;SDS011;7902;49.042;9.092;2023-05-10T06:08:11;11.87;;;1.60;;
15603;SDS011;7902;49.042;9.092;2023-05-10T06:10:37;12.40;;;1.57;;
15603;SDS011;7902;49.042;9.092;2023-05-10T06:13:03;14.70;;;1.70;;
15603;SDS011;7902;49.042;9.092;2023-05-10T06:15:29;12.10;;;1.60;;
15603;SDS011;7902;49.042;9.092;2023-05-10T06:17:56;10.07;;;1.60;;
15603;SDS011;7902;49.042;9.092;2023-05-10T06:20:21;10.13;;;1.70;;
15603;SDS011;7902;49.042;9.092;2023-05-10T06:22:47;10.53;;;1.70;;
15603;SDS011;7902;49.042;9.092;2023-05-10T06:25:13;11.70;;;1.40;;
15603;SDS011;7902;49.042;9.092;2023-05-10T06:27:40;11.17;;;1.77;;
15603;SDS011;7902;49.042;9.092;2023-05-10T06:30:06;13.43;;;1.60;;
15603;SDS011;7902;49.042;9.092;2023-05-10T06:32:33;10.07;;;1.30;;
15603;SDS011;7902;49.042;9.092;2023-05-10T06:34:59;11.80;;;1.60;;
15603;SDS011;7902;49.042;9.092;2023-05-10T06:37:25;14.03;;;1.50;;
15603;SDS011;7902;49.042;9.092;2023-05-10T06:39:51;9.90;;;1.30;;
15603;SDS011;7902;49.042;9.092;2023-05-10T06:42:17;14.10;;;1.40;;
15603;SDS011;7902;49.042;9.092;2023-05-10T06:44:43;19.03;;;1.60;;
15603;SDS011;7902;49.042;9.092;2023-05-10T06:47:09;10.80;;;1.30;;
15603;SDS011;7902;49.042;9.092;2023-05-10T06:49:35;9.83;;;1.30;;
15603;SDS011;7902;49.042;9.092;2023-05-10T06:52:01;10.67;;;1.27;;
15603;SDS011;7902;49.042;9.092;2023-05-10T06:54:26;11.03;;;1.20;;
15603;SDS011;7902;49.042;9.092;2023-05-10T06:56:52;10.23;;;1.27;;
15603;SDS011;7902;49.042;9.092;2023-05-10T06:59:18;11.20;;;1.20;;
15603;SDS011;7902;49.042;9.092;2023-05-10T07:01:44;10.20;;;1.00;;
15603;SDS011;7902;49.042;9.092;2023-05-10T07:04:10;19.97;;;1.50;;
15603;SDS011;7902;49.042;9.092;2023-05-10T07:06:36;9.40;;;0.83;;
15603;SDS011;7902;49.042;9.092;2023-05-10T07:09:02;10.83;;;1.20;;
15603;SDS011;7902;49.042;9.092;2023-05-10T07:11:28;21.67;;;2.37;;
15603;SDS011;7902;49.042;9.092;2023-05-10T07:13:54;13.13;;;1.10;;
15603;SDS011;7902;49.042;9.092;2023-05-10T07:16:20;12.20;;;1.10;;
15603;SDS011;7902;49.042;9.092;2023-05-10T07:18:47;9.70;;;1.00;;
15603;SDS011;7902;49.042;9.092;2023-05-10T07:21:12;13.00;;;1.00;;
15603;SDS011;7902;49.042;9.092;2023-05-10T07:23:38;9.57;;;0.93;;
15603;SDS011;7902;49.042;9.092;2023-05-10T07:26:04;12.70;;;0.90;;
15603;SDS011;7902;49.042;9.092;2023-05-10T07:28:30;10.73;;;1.40;;
15603;SDS011;7902;49.042;9.092;2023-05-10T07:30:56;10.90;;;0.93;;
15603;SDS011;7902;49.042;9.092;2023-05-10T07:33:22;10.97;;;0.73;;
15603;SDS011;7902;49.042;9.092;2023-05-10T07:35:48;9.60;;;0.90;;
15603;SDS011;7902;49.042;9.092;2023-05-10T07:38:15;9.13;;;0.70;;
15603;SDS011;7902;49.042;9.092;2023-05-10T07:40:41;9.43;;;0.77;;
15603;SDS011;7902;49.042;9.092;2023-05-10T07:43:07;10.60;;;0.83;;
15603;SDS011;7902;49.042;9.092;2023-05-10T07:45:33;11.10;;;1.10;;
15603;SDS011;7902;49.042;9.092;2023-05-10T07:47:59;9.47;;;0.70;;
15603;SDS011;7902;49.042;9.092;2023-05-10T07:50:25;10.10;;;0.90;;
15603;SDS011;7902;49.042;9.092;2023-05-10T07:52:51;11.40;;;0.90;;
15603;SDS011;7902;49.042;9.092;2023-05-10T07:55:18;9.90;;;0.93;;
15603;SDS011;7902;49.042;9.092;2023-05-10T07:57:44;10.83;;;0.90;;
15603;SDS011;7902;49.042;9.092;2023-05-10T08:00:12;11.10;;;0.90;;
15603;SDS011;7902;49.042;9.092;2023-05-10T08:02:38;12.80;;;0.87;;
15603;SDS011;7902;49.042;9.092;2023-05-10T08:05:05;13.17;;;0.90;;
15603;SDS011;7902;49.042;9.092;2023-05-10T08:07:31;10.03;;;1.00;;
15603;SDS011;7902;49.042;9.092;2023-05-10T08:09:57;10.10;;;0.80;;
15603;SDS011;7902;49.042;9.092;2023-05-10T08:12:22;13.63;;;0.77;;
15603;SDS011;7902;49.042;9.092;2023-05-10T08:14:48;9.57;;;0.67;;
15603;SDS011;7902;49.042;9.092;2023-05-10T08:17:14;9.77;;;0.73;;
15603;SDS011;7902;49.042;9.092;2023-05-10T08:19:40;10.10;;;0.90;;
15603;SDS011;7902;49.042;9.092;2023-05-10T08:22:06;17.93;;;0.87;;
15603;SDS011;7902;49.042;9.092;2023-05-10T08:24:32;10.20;;;0.80;;
15603;SDS011;7902;49.042;9.092;2023-05-10T08:27:00;10.73;;;0.80;;
15603;SDS011;7902;49.042;9.092;2023-05-10T08:29:26;15.80;;;0.80;;
15603;SDS011;7902;49.042;9.092;2023-05-10T08:31:52;11.20;;;0.80;;
15603;SDS011;7902;49.042;9.092;2023-05-10T08:34:18;9.90;;;0.80;;
15603;SDS011;7902;49.042;9.092;2023-05-10T08:36:43;11.03;;;1.00;;
15603;SDS011;7902;49.042;9.092;2023-05-10T08:39:10;9.80;;;0.70;;
15603;SDS011;7902;49.042;9.092;2023-05-10T08:41:36;9.50;;;0.70;;
15603;SDS011;7902;49.042;9.092;2023-05-10T08:44:05;10.50;;;0.90;;
15603;SDS011;7902;49.042;9.092;2023-05-10T08:46:33;16.50;;;0.93;;
15603;SDS011;7902;49.042;9.092;2023-05-10T08:49:04;9.80;;;0.70;;
15603;SDS011;7902;49.042;9.092;2023-05-10T08:51:34;11.17;;;0.80;;
15603;SDS011;7902;49.042;9.092;2023-05-10T08:54:02;14.23;;;0.80;;
15603;SDS011;7902;49.042;9.092;2023-05-10T08:56:29;10.73;;;0.80;;
15603;SDS011;7902;49.042;9.092;2023-05-10T08:58:55;10.53;;;0.97;;
15603;SDS011;7902;49.042;9.092;2023-05-10T09:01:21;9.80;;;0.90;;
15603;SDS011;7902;49.042;9.092;2023-05-10T09:03:48;11.03;;;1.13;;
15603;SDS011;7902;49.042;9.092;2023-05-10T09:06:14;9.93;;;0.90;;
15603;SDS011;7902;49.042;9.092;2023-05-10T09:08:41;10.17;;;1.03;;
15603;SDS011;7902;49.042;9.092;2023-05-10T09:11:08;11.10;;;0.90;;
15603;SDS011;7902;49.042;9.092;2023-05-10T09:13:35;11.10;;;1.10;;
15603;SDS011;7902;49.042;9.092;2023-05-10T09:16:05;10.50;;;0.70;;
15603;SDS011;7902;49.042;9.092;2023-05-10T09:18:31;11.20;;;0.73;;
15603;SDS011;7902;49.042;9.092;2023-05-10T09:20:57;10.27;;;0.90;;
15603;SDS011;7902;49.042;9.092;2023-05-10T09:23:23;11.40;;;1.10;;
15603;SDS011;7902;49.042;9.092;2023-05-10T09:26:06;10.80;;;0.93;;
15603;SDS011;7902;49.042;9.092;2023-05-10T09:28:33;9.57;;;0.80;;
15603;SDS011;7902;49.042;9.092;2023-05-10T09:31:00;14.43;;;0.83;;
15603;SDS011;7902;49.042;9.092;2023-05-10T09:33:26;10.00;;;1.00;;
15603;SDS011;7902;49.042;9.092;2023-05-10T09:35:52;9.90;;;0.90;;
15603;SDS011;7902;49.042;9.092;2023-05-10T09:38:18;9.60;;;0.80;;
15603;SDS011;7902;49.042;9.092;2023-05-10T09:40:50;10.23;;;0.90;;
15603;SDS011;7902;49.042;9.092;2023-05-10T09:43:20;10.30;;;1.00;;
15603;SDS011;7902;49.042;9.092;2023-05-10T09:45:45;9.80;;;1.00;;
15603;SDS011;7902;49.042;9.092;2023-05-10T09:48:15;9.50;;;0.80;;
15603;SDS011;7902;49.042;9.092;2023-05-10T09:50:41;12.43;;;1.10;;
15603;SDS011;7902;49.042;9.092;2023-05-10T09:53:07;11.07;;;0.80;;
15603;SDS011;7902;49.042;9.092;2023-05-10T09:55:43;14.70;;;0.80;;
15603;SDS011;7902;49.042;9.092;2023-05-10T09:58:11;10.73;;;0.80;;
15603;SDS011;7902;49.042;9.092;2023-05-10T10:00:41;12.13;;;1.10;;
15603;SDS011;7902;49.042;9.092;2023-05-10T10:03:13;11.47;;;0.90;;
15603;SDS011;7902;49.042;9.092;2023-05-10T10:05:40;10.87;;;1.00;;
15603;SDS011;7902;49.042;9.092;2023-05-10T10:08:10;10.70;;;1.00;;
15603;SDS011;7902;49.042;9.092;2023-05-10T10:10:37;10.10;;;0.80;;
15603;SDS011;7902;49.042;9.092;2023-05-10T10:13:06;12.23;;;0.90;;
15603;SDS011;7902;49.042;9.092;2023-05-10T10:15:32;9.80;;;0.70;;
15603;SDS011;7902;49.042;9.092;2023-05-10T10:17:59;10.37;;;0.90;;
15603;SDS011;7902;49.042;9.092;2023-05-10T10:20:26;9.83;;;0.80;;
15603;SDS011;7902;49.042;9.092;2023-05-10T10:22:53;9.43;;;0.73;;
15603;SDS011;7902;49.042;9.092;2023-05-10T10:25:19;9.37;;;0.60;;
15603;SDS011;7902;49.042;9.092;2023-05-10T10:30:31;9.80;;;0.80;;
15603;SDS011;7902;49.042;9.092;2023-05-10T10:36:09;9.87;;;0.70;;
15603;SDS011;7902;49.042;9.092;2023-05-10T10:52:18;9.47;;;0.70;;
15603;SDS011;7902;49.042;9.092;2023-05-10T10:54:49;10.17;;;0.90;;
15603;SDS011;7902;49.042;9.092;2023-05-10T10:57:17;9.73;;;0.90;;
15603;SDS011;7902;49.042;9.092;2023-05-10T10:59:45;11.30;;;0.70;;
15603;SDS011;7902;49.042;9.092;2023-05-10T11:07:54;10.93;;;0.80;;
15603;SDS011;7902;49.042;9.092;2023-05-10T11:10:22;12.33;;;0.80;;
15603;SDS011;7902;49.042;9.092;2023-05-10T11:15:32;11.13;;;0.87;;
15603;SDS011;7902;49.042;9.092;2023-05-10T11:17:59;10.40;;;0.97;;
15603;SDS011;7902;49.042;9.092;2023-05-10T11:20:41;13.97;;;0.90;;
15603;SDS011;7902;49.042;9.092;2023-05-10T11:23:11;12.63;;;0.90;;
15603;SDS011;7902;49.042;9.092;2023-05-10T11:25:44;16.93;;;0.80;;
15603;SDS011;7902;49.042;9.092;2023-05-10T11:28:11;10.50;;;1.00;;
15603;SDS011;7902;49.042;9.092;2023-05-10T11:30:38;10.90;;;0.90;;
15603;SDS011;7902;49.042;9.092;2023-05-10T11:33:05;13.37;;;0.97;;
15603;SDS011;7902;49.042;9.092;2023-05-10T11:35:38;12.07;;;1.43;;
15603;SDS011;7902;49.042;9.092;2023-05-10T11:38:08;11.90;;;1.00;;
15603;SDS011;7902;49.042;9.092;2023-05-10T11:40:38;11.80;;;1.13;;
15603;SDS011;7902;49.042;9.092;2023-05-10T11:43:05;11.73;;;0.90;;
15603;SDS011;7902;49.042;9.092;2023-05-10T11:45:33;13.60;;;1.10;;
15603;SDS011;7902;49.042;9.092;2023-05-10T11:48:01;10.87;;;0.90;;
15603;SDS011;7902;49.042;9.092;2023-05-10T11:50:28;10.73;;;0.90;;
15603;SDS011;7902;49.042;9.092;2023-05-10T11:52:54;12.20;;;1.23;;
15603;SDS011;7902;49.042;9.092;2023-05-10T11:55:21;13.53;;;1.00;;
15603;SDS011;7902;49.042;9.092;2023-05-10T11:57:51;10.60;;;0.90;;
15603;SDS011;7902;49.042;9.092;2023-05-10T12:00:17;11.80;;;1.00;;
15603;SDS011;7902;49.042;9.092;2023-05-10T12:02:43;12.93;;;1.27;;
15603;SDS011;7902;49.042;9.092;2023-05-10T12:05:09;17.87;;;1.10;;
15603;SDS011;7902;49.042;9.092;2023-05-10T12:07:36;13.03;;;1.53;;
15603;SDS011;7902;49.042;9.092;2023-05-10T12:10:09;12.97;;;1.27;;
15603;SDS011;7902;49.042;9.092;2023-05-10T12:12:44;13.10;;;1.23;;
15603;SDS011;7902;49.042;9.092;2023-05-10T12:15:18;17.63;;;1.40;;
15603;SDS011;7902;49.042;9.092;2023-05-10T12:17:45;16.83;;;1.57;;
15603;SDS011;7902;49.042;9.092;2023-05-10T12:20:12;13.47;;;1.13;;
15603;SDS011;7902;49.042;9.092;2023-05-10T12:22:46;14.60;;;1.30;;
15603;SDS011;7902;49.042;9.092;2023-05-10T12:25:20;11.40;;;0.97;;
15603;SDS011;7902;49.042;9.092;2023-05-10T12:27:50;12.87;;;1.23;;
15603;SDS011;7902;49.042;9.092;2023-05-10T12:30:24;12.27;;;0.90;;
15603;SDS011;7902;49.042;9.092;2023-05-10T12:32:53;12.23;;;0.90;;
15603;SDS011;7902;49.042;9.092;2023-05-10T12:35:19;11.70;;;0.97;;
15603;SDS011;7902;49.042;9.092;2023-05-10T12:37:52;13.03;;;1.10;;
15603;SDS011;7902;49.042;9.092;2023-05-10T12:40:18;12.13;;;1.10;;
15603;SDS011;7902;49.042;9.092;2023-05-10T12:42:44;11.43;;;1.00;;
15603;SDS011;7902;49.042;9.092;2023-05-10T12:45:10;18.57;;;1.30;;
15603;SDS011;7902;49.042;9.092;2023-05-10T12:47:37;12.90;;;1.10;;
15603;SDS011;7902;49.042;9.092;2023-05-10T12:50:03;12.00;;;1.10;;
15603;SDS011;7902;49.042;9.092;2023-05-10T12:52:30;18.13;;;1.23;;
15603;SDS011;7902;49.042;9.092;2023-05-10T12:54:58;11.70;;;1.17;;
15603;SDS011;7902;49.042;9.092;2023-05-10T12:57:25;12.67;;;0.80;;
15603;SDS011;7902;49.042;9.092;2023-05-10T12:59:51;12.00;;;1.10;;
15603;SDS011;7902;49.042;9.092;2023-05-10T13:02:17;16.40;;;1.20;;
15603;SDS011;7902;49.042;9.092;2023-05-10T13:04:47;12.50;;;0.90;;
15603;SDS011;7902;49.042;9.092;2023-05-10T13:07:13;13.40;;;0.90;;
15603;SDS011;7902;49.042;9.092;2023-05-10T13:09:39;15.50;;;1.40;;
15603;SDS011;7902;49.042;9.092;2023-05-10T13:12:05;14.03;;;1.10;;
15603;SDS011;7902;49.042;9.092;2023-05-10T13:14:31;12.37;;;1.33;;
15603;SDS011;7902;49.042;9.092;2023-05-10T13:16:57;14.50;;;1.20;;
15603;SDS011;7902;49.042;9.092;2023-05-10T13:19:23;12.80;;;1.10;;
15603;SDS011;7902;49.042;9.092;2023-05-10T13:21:49;15.03;;;1.00;;
15603;SDS011;7902;49.042;9.092;2023-05-10T13:24:15;12.50;;;1.20;;
15603;SDS011;7902;49.042;9.092;2023-05-10T13:26:41;13.60;;;0.83;;
15603;SDS011;7902;49.042;9.092;2023-05-10T13:29:07;12.50;;;0.93;;
15603;SDS011;7902;49.042;9.092;2023-05-10T13:31:33;11.60;;;0.90;;
15603;SDS011;7902;49.042;9.092;2023-05-10T13:34:00;13.20;;;0.90;;
15603;SDS011;7902;49.042;9.092;2023-05-10T13:36:26;11.70;;;0.90;;
15603;SDS011;7902;49.042;9.092;2023-05-10T13:38:52;15.10;;;1.13;;
15603;SDS011;7902;49.042;9.092;2023-05-10T13:41:18;21.87;;;1.70;;
15603;SDS011;7902;49.042;9.092;2023-05-10T13:43:43;13.87;;;1.27;;
15603;SDS011;7902;49.042;9.092;2023-05-10T13:46:09;15.70;;;0.83;;
15603;SDS011;7902;49.042;9.092;2023-05-10T13:48:36;12.27;;;0.90;;
15603;SDS011;7902;49.042;9.092;2023-05-10T13:51:04;15.13;;;0.90;;
15603;SDS011;7902;49.042;9.092;2023-05-10T13:53:30;13.47;;;0.93;;
15603;SDS011;7902;49.042;9.092;2023-05-10T13:55:56;12.63;;;0.90;;
15603;SDS011;7902;49.042;9.092;2023-05-10T13:58:22;16.03;;;1.00;;
15603;SDS011;7902;49.042;9.092;2023-05-10T14:00:49;12.80;;;0.83;;
15603;SDS011;7902;49.042;9.092;2023-05-10T14:03:14;11.50;;;0.70;;
15603;SDS011;7902;49.042;9.092;2023-05-10T14:05:40;11.50;;;0.90;;
15603;SDS011;7902;49.042;9.092;2023-05-10T14:08:06;15.87;;;0.80;;
15603;SDS011;7902;49.042;9.092;2023-05-10T14:10:34;12.20;;;0.70;;
15603;SDS011;7902;49.042;9.092;2023-05-10T14:13:00;11.23;;;0.97;;
15603;SDS011;7902;49.042;9.092;2023-05-10T14:15:26;11.50;;;0.70;;
15603;SDS011;7902;49.042;9.092;2023-05-10T14:17:52;19.23;;;1.10;;
15603;SDS011;7902;49.042;9.092;2023-05-10T14:20:18;17.10;;;0.70;;
15603;SDS011;7902;49.042;9.092;2023-05-10T14:22:44;14.83;;;1.10;;
15603;SDS011;7902;49.042;9.092;2023-05-10T14:25:10;12.70;;;0.87;;
15603;SDS011;7902;49.042;9.092;2023-05-10T14:27:36;12.10;;;0.90;;
15603;SDS011;7902;49.042;9.092;2023-05-10T14:30:02;11.70;;;0.80;;
15603;SDS011;7902;49.042;9.092;2023-05-10T14:32:29;10.80;;;0.70;;
15603;SDS011;7902;49.042;9.092;2023-05-10T14:34:54;18.10;;;0.87;;
15603;SDS011;7902;49.042;9.092;2023-05-10T14:37:21;15.30;;;0.83;;
15603;SDS011;7902;49.042;9.092;2023-05-10T14:39:47;15.10;;;0.70;;
15603;SDS011;7902;49.042;9.092;2023-05-10T14:42:12;14.53;;;1.20;;
15603;SDS011;7902;49.042;9.092;2023-05-10T14:44:38;11.77;;;0.90;;
15603;SDS011;7902;49.042;9.092;2023-05-10T14:47:05;13.30;;;0.90;;
15603;SDS011;7902;49.042;9.092;2023-05-10T14:49:31;14.43;;;1.10;;
15603;SDS011;7902;49.042;9.092;2023-05-10T14:51:57;11.27;;;0.80;;
15603;SDS011;7902;49.042;9.092;2023-05-10T14:54:23;11.30;;;0.80;;
15603;SDS011;7902;49.042;9.092;2023-05-10T14:56:48;12.93;;;0.83;;
15603;SDS011;7902;49.042;9.092;2023-05-10T14:59:17;13.30;;;1.20;;
15603;SDS011;7902;49.042;9.092;2023-05-10T15:01:43;16.87;;;1.07;;
15603;SDS011;7902;49.042;9.092;2023-05-10T15:04:09;11.30;;;0.80;;
15603;SDS011;7902;49.042;9.092;2023-05-10T15:06:35;12.90;;;1.63;;
15603;SDS011;7902;49.042;9.092;2023-05-10T15:09:02;12.87;;;0.80;;
15603;SDS011;7902;49.042;9.092;2023-05-10T15:11:28;11.30;;;0.70;;
15603;SDS011;7902;49.042;9.092;2023-05-10T15:13:55;11.93;;;0.70;;
15603;SDS011;7902;49.042;9.092;2023-05-10T15:16:20;11.27;;;0.80;;
15603;SDS011;7902;49.042;9.092;2023-05-10T15:18:47;12.07;;;0.80;;
15603;SDS011;7902;49.042;9.092;2023-05-10T15:21:13;17.90;;;0.90;;
15603;SDS011;7902;49.042;9.092;2023-05-10T15:23:39;16.90;;;0.70;;
15603;SDS011;7902;49.042;9.092;2023-05-10T15:26:05;11.30;;;0.93;;
15603;SDS011;7902;49.042;9.092;2023-05-10T15:28:31;14.43;;;0.80;;
15603;SDS011;7902;49.042;9.092;2023-05-10T15:30:57;13.60;;;0.87;;